Time;durP1;ratioP1;P1;durP2;ratioP2;P2;SDS_P1;SDS_P2;PMS_P1;PMS_P2;Temp;Humidity;BMP_temperature;BMP_pressure;BME280_temperature;BME280_humidity;BME280_pressure;Samples;Min_cycle;Max_cycle;Signal;HPM_P1;HPM_P2
2022/05/06 06:16:31;;;;;;;9.27;4.47;;;12.20;99.90;;;;;;4766090;23;20247;-72
2022/05/06 06:18:58;;;;;;;8.27;4.10;;;12.10;99.90;;;;;;4935088;29;20216;-75
2022/05/06 06:21:25;;;;;;;8.70;4.37;;;12.10;99.90;;;;;;4936218;29;20205;-73
2022/05/06 06:23:52;;;;;;;10.70;4.57;;;12.30;99.90;;;;;;4935002;29;20312;-73
2022/05/06 06:26:19;;;;;;;9.73;5.17;;;12.30;99.90;;;;;;4938721;28;20204;-73
2022/05/06 06:28:46;;;;;;;10.63;4.47;;;12.40;99.90;;;;;;4954401;28;20665;-74
2022/05/06 06:31:13;;;;;;;8.60;3.77;;;12.50;99.90;;;;;;4954587;28;20264;-73
2022/05/06 06:33:41;;;;;;;8.40;4.23;;;12.50;99.90;;;;;;4954500;28;20279;-73
2022/05/06 06:36:08;;;;;;;8.93;4.40;;;12.70;99.90;;;;;;4954448;28;20632;-71
2022/05/06 06:38:35;;;;;;;7.63;4.23;;;12.70;99.90;;;;;;4953956;28;20663;-72
2022/05/06 06:41:02;;;;;;;8.33;4.33;;;12.80;99.90;;;;;;4954499;28;20212;-74
2022/05/06 06:43:29;;;;;;;8.00;4.07;;;12.90;99.90;;;;;;4954844;28;20239;-75
2022/05/06 06:45:56;;;;;;;7.87;3.77;;;12.80;99.90;;;;;;4954537;28;20208;-74
2022/05/06 06:48:24;;;;;;;7.63;3.83;;;12.80;99.90;;;;;;4953891;28;20240;-74
2022/05/06 06:50:53;;;;;;;6.50;3.97;;;12.90;99.90;;;;;;4954290;28;20267;-72
2022/05/06 06:53:20;;;;;;;11.33;4.67;;;13.10;99.90;;;;;;4953968;28;20232;-72
2022/05/06 06:55:47;;;;;;;8.60;4.37;;;13.10;99.90;;;;;;4954200;28;20244;-72
2022/05/06 06:58:14;;;;;;;8.23;4.70;;;13.30;99.90;;;;;;4953214;28;20216;-73
2022/05/06 07:00:42;;;;;;;7.93;4.00;;;13.40;99.90;;;;;;4953913;28;20216;-71
2022/05/06 07:03:09;;;;;;;9.63;4.37;;;13.40;99.90;;;;;;4961458;28;20318;-73
2022/05/06 07:05:36;;;;;;;7.13;3.87;;;13.30;99.90;;;;;;4973303;28;20211;-72
2022/05/06 07:13:33;;;;;;;7.50;3.90;;;14.00;99.90;;;;;;4954387;28;20335;-73
2022/05/06 07:16:00;;;;;;;8.00;4.50;;;14.10;99.90;;;;;;4953417;28;20693;-73
2022/05/06 07:18:27;;;;;;;10.80;5.23;;;14.20;99.90;;;;;;4953918;28;20208;-72
2022/05/06 07:20:54;;;;;;;10.53;5.00;;;14.20;99.90;;;;;;4953710;28;20570;-72
2022/05/06 07:23:24;;;;;;;13.33;5.27;;;14.30;99.90;;;;;;4953494;28;20259;-73
2022/05/06 07:25:50;;;;;;;11.07;5.27;;;14.10;99.90;;;;;;4953732;28;20272;-72
2022/05/06 07:28:18;;;;;;;10.43;5.10;;;14.20;99.90;;;;;;4953669;28;20663;-72
2022/05/06 07:30:45;;;;;;;12.00;4.63;;;14.50;99.90;;;;;;4952424;28;20232;-72
2022/05/06 07:33:12;;;;;;;9.73;4.83;;;14.80;99.90;;;;;;4953847;28;20228;-72
2022/05/06 07:35:39;;;;;;;12.37;5.27;;;14.90;99.90;;;;;;4954613;28;20214;-71
2022/05/06 07:38:06;;;;;;;11.37;5.67;;;14.80;99.90;;;;;;4955135;28;20215;-71
2022/05/06 07:40:34;;;;;;;10.40;4.97;;;14.70;99.90;;;;;;4954945;28;20216;-71
2022/05/06 07:43:01;;;;;;;13.37;5.27;;;14.90;99.90;;;;;;4954335;28;20238;-71
2022/05/06 07:45:28;;;;;;;11.80;5.33;;;15.00;99.90;;;;;;4954665;28;20207;-71
2022/05/06 07:47:54;;;;;;;11.37;5.90;;;15.20;99.90;;;;;;4954862;28;20307;-71
2022/05/06 07:50:21;;;;;;;10.67;5.93;;;15.30;99.90;;;;;;4954694;28;20231;-71
2022/05/06 07:52:49;;;;;;;9.37;5.10;;;15.50;99.90;;;;;;4954648;28;20227;-71
2022/05/06 07:55:19;;;;;;;10.90;5.37;;;15.90;99.90;;;;;;4954868;28;20208;-71
2022/05/06 07:57:47;;;;;;;12.03;5.87;;;16.00;99.90;;;;;;4954603;28;20258;-71
2022/05/06 08:00:15;;;;;;;12.43;5.90;;;16.10;99.90;;;;;;4954925;28;20693;-71
2022/05/06 08:05:32;;;;;;;10.77;5.57;;;16.20;99.90;;;;;;4900290;28;20566;-71
2022/05/06 08:07:59;;;;;;;11.57;5.57;;;16.50;99.90;;;;;;4954648;28;20208;-72
2022/05/06 08:10:26;;;;;;;10.83;5.27;;;16.50;99.90;;;;;;4955027;28;20267;-72
2022/05/06 08:12:55;;;;;;;10.40;5.33;;;16.90;99.90;;;;;;4954894;28;20260;-71
2022/05/06 08:15:22;;;;;;;9.17;4.83;;;17.10;99.90;;;;;;4954717;28;20215;-71
2022/05/06 08:17:49;;;;;;;10.10;5.00;;;17.00;99.90;;;;;;4954446;28;20578;-72
2022/05/06 08:20:16;;;;;;;10.60;5.37;;;16.90;99.90;;;;;;4954475;28;20212;-71
2022/05/06 08:22:43;;;;;;;10.83;5.40;;;17.00;99.90;;;;;;4954470;28;20278;-71
2022/05/06 08:25:10;;;;;;;9.07;4.93;;;17.60;99.90;;;;;;4954757;28;20215;-72
2022/05/06 08:27:38;;;;;;;10.40;5.07;;;18.60;99.90;;;;;;4954711;28;20688;-71
2022/05/06 08:30:08;;;;;;;12.23;5.13;;;19.40;99.90;;;;;;4954319;28;20602;-71
2022/05/06 08:32:36;;;;;;;10.60;5.05;;;19.60;99.90;;;;;;4954462;28;20658;-71
2022/05/06 08:35:04;;;;;;;9.63;5.03;;;20.40;99.90;;;;;;4954498;28;20245;-71
2022/05/06 08:37:40;;;;;;;10.52;5.30;;;19.70;99.90;;;;;;4954280;28;20302;-72
2022/05/06 08:40:08;;;;;;;8.05;4.55;;;20.00;99.90;;;;;;4954273;28;20563;-71
2022/05/06 08:42:35;;;;;;;9.10;4.75;;;20.90;99.90;;;;;;4955701;28;20239;-72
2022/05/06 08:53:17;;;;;;;7.72;4.43;;;23.20;99.90;;;;;;4957724;29;20590;-72
2022/05/06 08:55:44;;;;;;;8.63;5.05;;;23.80;99.10;;;;;;4957789;28;20563;-72
2022/05/06 08:58:11;;;;;;;7.78;4.65;;;24.00;99.40;;;;;;4957504;28;20212;-72
2022/05/06 09:00:38;;;;;;;8.52;4.88;;;24.10;98.50;;;;;;4957668;28;20208;-71
2022/05/06 09:03:07;;;;;;;8.02;4.93;;;24.30;97.50;;;;;;4957621;28;20236;-71
2022/05/06 09:05:47;;;;;;;8.75;4.45;;;24.10;98.00;;;;;;4957616;28;20208;-71
2022/05/06 09:08:14;;;;;;;11.18;5.65;;;24.00;97.70;;;;;;4957357;28;20211;-71
2022/05/06 09:10:41;;;;;;;7.00;4.72;;;23.80;98.00;;;;;;4957142;28;20326;-71
2022/05/06 09:13:08;;;;;;;7.68;4.57;;;23.60;97.80;;;;;;4957574;28;20235;-71
2022/05/06 09:18:23;;;;;;;8.30;5.05;;;23.70;98.00;;;;;;4957287;28;20567;-71
2022/05/06 09:20:50;;;;;;;6.93;4.47;;;24.00;97.30;;;;;;4957207;28;20303;-71
2022/05/06 09:23:24;;;;;;;9.02;5.00;;;24.20;97.00;;;;;;4957199;28;20635;-71
2022/05/06 09:25:52;;;;;;;7.40;4.45;;;23.40;97.30;;;;;;4957480;28;20219;-71
2022/05/06 09:28:24;;;;;;;7.28;4.57;;;22.80;98.00;;;;;;4957282;28;20212;-72
2022/05/06 09:31:02;;;;;;;8.02;4.47;;;22.30;99.00;;;;;;4956766;28;20235;-71
2022/05/06 09:33:32;;;;;;;7.72;4.05;;;22.30;98.70;;;;;;4956799;28;20239;-71
2022/05/06 09:35:59;;;;;;;6.85;4.32;;;22.70;98.60;;;;;;4957138;28;20762;-71
2022/05/06 09:38:29;;;;;;;7.35;4.00;;;21.90;99.00;;;;;;4957076;28;20647;-71
2022/05/06 09:40:58;;;;;;;7.22;4.22;;;21.80;99.90;;;;;;4956715;28;20208;-71
2022/05/06 09:43:26;;;;;;;6.30;3.75;;;22.10;99.30;;;;;;4956817;28;20232;-71
2022/05/06 09:45:53;;;;;;;6.90;3.90;;;22.50;98.50;;;;;;4956721;28;20615;-71
2022/05/06 09:48:20;;;;;;;5.03;3.45;;;22.60;98.60;;;;;;4956839;28;20210;-71
2022/05/06 09:50:49;;;;;;;5.00;3.30;;;22.20;98.70;;;;;;4956909;28;20240;-71
2022/05/06 09:53:19;;;;;;;6.80;4.15;;;21.60;99.70;;;;;;4956569;28;20244;-71
2022/05/06 09:55:47;;;;;;;7.18;3.95;;;21.60;99.90;;;;;;4956378;28;20220;-71
2022/05/06 09:58:14;;;;;;;7.45;4.10;;;21.20;99.90;;;;;;4957067;28;20204;-71
2022/05/06 10:00:43;;;;;;;7.10;4.35;;;20.80;99.90;;;;;;4956645;28;20211;-71
2022/05/06 10:03:10;;;;;;;6.78;4.13;;;20.70;99.90;;;;;;4956460;28;20255;-71
2022/05/06 10:05:38;;;;;;;7.20;4.22;;;20.60;99.90;;;;;;4956258;28;20677;-71
2022/05/06 10:08:12;;;;;;;6.97;3.88;;;20.10;99.90;;;;;;4956477;28;20208;-71
2022/05/06 10:10:42;;;;;;;6.45;3.78;;;20.10;99.90;;;;;;4956362;28;20242;-71
2022/05/06 10:13:13;;;;;;;5.35;3.53;;;20.00;99.90;;;;;;4956108;28;20224;-71
2022/05/06 10:15:40;;;;;;;7.43;3.60;;;19.80;99.90;;;;;;4955970;28;20686;-71
2022/05/06 10:18:08;;;;;;;7.05;3.85;;;19.70;99.90;;;;;;4955928;28;20655;-71
2022/05/06 10:21:02;;;;;;;5.97;3.55;;;19.50;99.90;;;;;;4956098;28;20266;-71
2022/05/06 10:24:13;;;;;;;5.53;3.47;;;19.50;99.90;;;;;;4955777;28;20231;-71
2022/05/06 10:26:46;;;;;;;6.45;2.88;;;18.90;99.90;;;;;;4896633;29;20214;-71
2022/05/06 10:32:57;;;;;;;6.38;3.45;;;19.30;99.90;;;;;;4955834;29;20254;-71
2022/05/06 10:35:42;;;;;;;5.15;2.65;;;19.50;99.90;;;;;;4955793;28;20310;-71
2022/05/06 10:38:23;;;;;;;5.82;3.33;;;19.40;99.90;;;;;;4955817;28;20250;-71
2022/05/06 10:40:57;;;;;;;6.93;3.42;;;19.10;99.90;;;;;;4955700;28;20675;-71
2022/05/06 10:43:54;;;;;;;5.15;3.08;;;18.90;99.90;;;;;;4955544;28;20238;-71
2022/05/06 10:46:32;;;;;;;5.65;3.35;;;19.20;99.90;;;;;;4955709;28;20208;-71
2022/05/06 10:49:52;;;;;;;8.38;2.60;;;19.30;99.90;;;;;;4955605;28;20214;-71
2022/05/06 10:52:44;;;;;;;4.13;2.58;;;19.50;99.90;;;;;;4955421;28;20210;-71
2022/05/06 10:55:14;;;;;;;4.30;2.65;;;19.70;99.80;;;;;;4955637;28;20702;-71
2022/05/06 10:58:06;;;;;;;5.97;2.60;;;19.90;99.60;;;;;;4955668;28;20204;-70
2022/05/06 11:00:37;;;;;;;3.97;2.65;;;19.90;99.80;;;;;;4955873;28;20218;-70
2022/05/06 11:03:05;;;;;;;4.13;2.72;;;19.80;99.40;;;;;;4955420;28;20231;-71
2022/05/06 11:05:32;;;;;;;3.97;2.13;;;19.80;99.10;;;;;;4955242;28;20294;-70
2022/05/06 11:08:01;;;;;;;4.13;2.40;;;19.90;99.40;;;;;;4955337;28;20256;-70
2022/05/06 11:10:31;;;;;;;4.45;2.33;;;20.00;99.20;;;;;;4955247;28;20591;-70
2022/05/06 11:13:00;;;;;;;3.75;2.45;;;19.90;99.80;;;;;;4955324;28;20224;-71
2022/05/06 11:15:30;;;;;;;2.97;1.67;;;20.00;98.70;;;;;;4954735;28;20204;-71
2022/05/06 11:17:59;;;;;;;4.95;2.33;;;19.90;99.40;;;;;;4953403;28;20230;-71
2022/05/06 11:20:27;;;;;;;2.85;2.00;;;19.90;98.80;;;;;;4954061;28;20218;-71
2022/05/06 11:23:04;;;;;;;5.00;2.55;;;20.00;99.40;;;;;;4953265;28;20228;-70
2022/05/06 11:25:33;;;;;;;4.65;2.70;;;19.90;99.70;;;;;;4954015;28;20678;-70
2022/05/06 11:28:03;;;;;;;4.60;2.83;;;20.00;99.90;;;;;;4954417;28;20231;-70
2022/05/06 11:30:32;;;;;;;5.35;2.80;;;20.00;98.80;;;;;;4954155;28;20254;-70
2022/05/06 11:33:00;;;;;;;4.32;2.22;;;20.00;99.40;;;;;;4954316;28;20315;-70
2022/05/06 11:35:33;;;;;;;5.65;2.60;;;20.00;99.50;;;;;;4953922;28;20215;-70
2022/05/06 11:38:01;;;;;;;3.97;2.33;;;20.30;98.70;;;;;;4953939;28;20208;-70
2022/05/06 11:40:34;;;;;;;6.55;3.15;;;20.50;98.60;;;;;;4954338;28;20839;-70
2022/05/06 11:43:04;;;;;;;5.32;2.63;;;20.50;98.30;;;;;;4954745;28;20318;-71
2022/05/06 11:48:18;;;;;;;4.18;2.25;;;20.50;98.80;;;;;;4954153;29;20203;-70
2022/05/06 11:50:47;;;;;;;5.70;2.88;;;20.40;99.00;;;;;;4953057;28;20279;-70
2022/05/06 11:53:18;;;;;;;4.32;2.55;;;20.50;98.80;;;;;;4954258;28;20228;-70
2022/05/06 11:55:47;;;;;;;7.25;3.03;;;20.50;98.30;;;;;;4954688;28;20234;-70
2022/05/06 11:58:17;;;;;;;7.97;2.97;;;20.50;99.60;;;;;;4954896;28;20591;-70
2022/05/06 12:00:46;;;;;;;7.95;2.80;;;20.50;98.80;;;;;;4954179;28;20802;-70
2022/05/06 12:03:14;;;;;;;4.50;2.67;;;20.50;98.70;;;;;;4954274;28;20227;-70
2022/05/06 12:05:42;;;;;;;19.13;3.35;;;20.50;98.40;;;;;;4954491;28;20214;-70
2022/05/06 12:08:09;;;;;;;5.18;2.60;;;20.50;98.90;;;;;;4954120;28;20658;-70
2022/05/06 12:10:37;;;;;;;5.68;2.55;;;20.60;99.10;;;;;;4954331;28;20709;-70
2022/05/06 12:13:07;;;;;;;4.93;2.80;;;20.60;97.50;;;;;;4954166;28;20223;-71
2022/05/06 12:15:38;;;;;;;4.75;2.17;;;20.60;97.40;;;;;;4967810;23;20549;-70
2022/05/06 12:18:07;;;;;;;7.18;2.78;;;20.80;97.40;;;;;;4936516;29;20220;-70
2022/05/06 12:20:36;;;;;;;4.53;2.30;;;21.10;96.70;;;;;;4939115;29;20204;-69
2022/05/06 12:23:04;;;;;;;4.85;2.35;;;21.10;97.40;;;;;;4938680;29;20264;-70
2022/05/06 12:25:31;;;;;;;6.57;3.03;;;21.10;97.40;;;;;;4938316;29;20215;-69
2022/05/06 12:28:06;;;;;;;4.20;2.50;;;21.00;97.40;;;;;;4934971;29;20208;-68
2022/05/06 12:30:35;;;;;;;5.10;2.85;;;21.00;97.10;;;;;;4937533;29;20204;-68
2022/05/06 12:33:05;;;;;;;5.57;2.92;;;20.90;97.00;;;;;;4937585;29;20708;-71
2022/05/06 12:35:31;;;;;;;5.05;3.03;;;21.00;97.20;;;;;;4937507;29;20219;-69
2022/05/06 12:38:00;;;;;;;5.97;2.85;;;21.10;97.30;;;;;;4937824;29;20208;-70
2022/05/06 12:40:30;;;;;;;5.57;2.83;;;21.00;96.60;;;;;;4937448;29;20608;-70
2022/05/06 12:43:07;;;;;;;4.32;2.40;;;20.90;96.60;;;;;;4937144;29;20232;-71
2022/05/06 12:45:37;;;;;;;4.45;2.50;;;20.80;96.90;;;;;;4937385;29;20263;-70
2022/05/06 12:50:48;;;;;;;4.72;2.78;;;20.40;97.40;;;;;;4937528;29;20211;-69
2022/05/06 12:53:15;;;;;;;6.15;2.47;;;20.50;97.00;;;;;;4936691;29;20228;-69
2022/05/06 12:55:43;;;;;;;5.60;2.50;;;20.60;97.30;;;;;;4936516;29;20231;-70
2022/05/06 12:58:10;;;;;;;6.43;2.90;;;20.70;97.30;;;;;;4937715;29;20296;-71
2022/05/06 13:00:39;;;;;;;7.10;3.35;;;20.70;97.70;;;;;;4936994;29;20208;-72
2022/05/06 13:03:06;;;;;;;5.40;3.20;;;20.90;96.50;;;;;;4936322;29;20245;-71
2022/05/06 13:05:34;;;;;;;6.15;2.80;;;21.00;96.20;;;;;;4936941;29;20213;-71
2022/05/06 13:08:06;;;;;;;5.85;3.10;;;21.10;97.10;;;;;;4937279;29;20213;-71
2022/05/06 13:10:33;;;;;;;5.88;3.10;;;21.10;95.90;;;;;;4936475;29;20217;-71
2022/05/06 13:13:00;;;;;;;5.60;2.88;;;21.10;96.00;;;;;;4937218;29;20248;-70
2022/05/06 13:15:27;;;;;;;5.47;2.70;;;21.20;95.90;;;;;;4936419;29;20240;-74
2022/05/06 13:17:55;;;;;;;5.55;2.72;;;21.10;96.30;;;;;;4937613;29;20223;-71
2022/05/06 13:20:22;;;;;;;6.50;2.70;;;20.80;96.30;;;;;;4938089;29;20213;-72
2022/05/06 13:22:49;;;;;;;5.25;2.90;;;20.90;96.90;;;;;;4937805;29;20600;-72
2022/05/06 13:25:17;;;;;;;19.40;2.92;;;21.00;96.60;;;;;;4938147;29;20205;-72
2022/05/06 13:27:45;;;;;;;5.13;2.65;;;21.10;96.60;;;;;;4937967;29;20579;-72
2022/05/06 13:30:12;;;;;;;4.40;2.45;;;21.20;96.20;;;;;;4937044;29;20573;-73
2022/05/06 13:32:39;;;;;;;6.78;3.20;;;21.30;96.50;;;;;;4937806;29;20696;-74
2022/05/06 13:35:08;;;;;;;4.45;2.50;;;21.40;95.80;;;;;;4938091;29;20209;-73
2022/05/06 13:37:35;;;;;;;5.07;2.50;;;21.10;95.30;;;;;;4938098;29;20212;-72
2022/05/06 13:40:02;;;;;;;4.18;2.45;;;21.10;96.30;;;;;;4937980;29;20231;-72
2022/05/06 13:42:29;;;;;;;3.90;2.28;;;21.10;95.50;;;;;;4937710;29;20215;-72
2022/05/06 13:44:56;;;;;;;5.05;2.72;;;21.20;95.80;;;;;;4938019;29;20215;-72
2022/05/06 13:47:23;;;;;;;4.20;2.00;;;21.40;95.40;;;;;;4937489;29;20559;-73
2022/05/06 13:49:50;;;;;;;3.17;1.85;;;21.40;94.70;;;;;;4937564;29;20209;-72
2022/05/06 13:52:18;;;;;;;4.03;2.15;;;21.50;94.50;;;;;;4937475;29;20268;-71
2022/05/06 13:54:44;;;;;;;3.72;2.42;;;21.70;95.10;;;;;;4937804;29;20220;-72
2022/05/06 13:59:56;;;;;;;3.05;1.90;;;22.00;94.30;;;;;;4937547;29;20211;-72
2022/05/06 14:02:22;;;;;;;3.55;2.03;;;22.30;94.60;;;;;;4937555;29;20212;-78
2022/05/06 14:04:49;;;;;;;3.55;1.83;;;22.40;94.20;;;;;;4937464;29;20213;-73
2022/05/06 14:07:17;;;;;;;4.97;1.65;;;22.30;93.90;;;;;;4937543;29;20213;-73
2022/05/06 14:09:44;;;;;;;3.72;1.70;;;22.40;93.50;;;;;;4937360;29;20212;-75
2022/05/06 14:12:11;;;;;;;3.58;2.08;;;22.20;93.70;;;;;;4937284;29;20229;-71
2022/05/06 14:14:38;;;;;;;5.20;1.70;;;21.90;93.60;;;;;;4937215;29;20204;-72
2022/05/06 14:17:05;;;;;;;3.00;1.73;;;21.80;94.20;;;;;;4937096;29;20575;-72
2022/05/06 14:19:31;;;;;;;4.85;1.90;;;21.90;93.40;;;;;;4937505;29;20213;-72
2022/05/06 14:21:58;;;;;;;3.28;1.75;;;22.00;93.30;;;;;;4937354;29;20213;-72
2022/05/06 14:24:27;;;;;;;3.55;1.60;;;21.90;93.30;;;;;;4936963;29;20225;-72
2022/05/06 14:26:53;;;;;;;3.67;1.70;;;22.10;93.10;;;;;;4937056;29;20219;-72
2022/05/06 14:29:21;;;;;;;3.05;1.70;;;21.90;93.20;;;;;;4936872;29;20215;-72
2022/05/06 14:31:48;;;;;;;3.78;1.75;;;22.00;93.30;;;;;;4936843;29;20291;-73
2022/05/06 14:34:15;;;;;;;3.30;1.95;;;22.10;92.90;;;;;;4936897;29;20229;-73
2022/05/06 14:36:42;;;;;;;4.13;1.85;;;21.80;92.90;;;;;;4936721;29;20205;-73
2022/05/06 14:39:09;;;;;;;2.70;1.40;;;21.80;93.20;;;;;;4937014;29;20219;-72
2022/05/06 14:41:37;;;;;;;3.55;1.60;;;21.80;93.10;;;;;;4936397;29;20219;-72
2022/05/06 14:44:04;;;;;;;3.38;1.70;;;21.90;92.60;;;;;;4936574;29;20250;-72
2022/05/06 14:46:31;;;;;;;3.95;2.13;;;22.00;92.30;;;;;;4937038;29;20212;-72
2022/05/06 14:48:58;;;;;;;5.20;2.13;;;21.90;92.70;;;;;;4936507;29;20212;-72
2022/05/06 14:51:26;;;;;;;5.70;2.00;;;22.00;93.20;;;;;;4936596;29;20208;-74
2022/05/06 14:53:52;;;;;;;7.72;2.50;;;21.80;93.30;;;;;;4936231;29;20229;-72
2022/05/06 14:56:21;;;;;;;4.63;2.42;;;21.60;93.30;;;;;;4936480;29;20219;-72
2022/05/06 14:58:49;;;;;;;3.95;2.10;;;21.70;93.70;;;;;;4936686;29;20336;-72
2022/05/06 15:01:16;;;;;;;9.73;2.13;;;21.70;93.10;;;;;;4936625;29;20205;-73
2022/05/06 15:03:42;;;;;;;5.00;2.30;;;21.80;93.80;;;;;;4936469;29;20241;-72
2022/05/06 15:06:09;;;;;;;3.42;1.73;;;21.90;93.10;;;;;;4936255;29;20672;-73
2022/05/06 15:08:36;;;;;;;4.13;2.10;;;22.00;93.40;;;;;;4936483;29;20213;-72
2022/05/06 15:11:04;;;;;;;4.80;1.77;;;21.90;93.30;;;;;;4936390;29;20213;-72
2022/05/06 15:13:31;;;;;;;4.82;1.95;;;22.00;92.50;;;;;;4936283;29;20240;-72
2022/05/06 15:15:59;;;;;;;3.58;2.10;;;22.00;92.50;;;;;;4936303;29;20275;-71
2022/05/06 15:21:13;;;;;;;4.25;1.88;;;22.10;92.30;;;;;;4936266;29;20212;-72
2022/05/06 15:23:46;;;;;;;3.38;1.55;;;22.10;92.10;;;;;;4936017;29;20256;-72
2022/05/06 15:26:13;;;;;;;4.40;2.17;;;22.10;91.90;;;;;;4936083;29;20288;-72
2022/05/06 15:28:41;;;;;;;3.15;1.83;;;22.20;92.00;;;;;;4935993;29;20215;-72
2022/05/06 15:31:09;;;;;;;3.20;1.65;;;22.00;91.20;;;;;;4936021;29;20211;-72
2022/05/06 15:33:36;;;;;;;4.82;2.40;;;21.90;92.50;;;;;;4935725;29;20599;-73
2022/05/06 15:36:03;;;;;;;5.25;2.38;;;21.70;91.80;;;;;;4935978;29;20218;-73
2022/05/06 15:38:31;;;;;;;6.07;2.05;;;21.90;91.40;;;;;;4936328;29;20231;-73
2022/05/06 15:40:58;;;;;;;6.00;2.50;;;22.00;91.80;;;;;;4935945;29;20205;-74
2022/05/06 15:43:25;;;;;;;3.60;1.88;;;22.30;91.70;;;;;;4935902;29;20243;-72
2022/05/06 15:45:52;;;;;;;4.18;2.42;;;22.30;92.30;;;;;;4935153;29;20219;-72
2022/05/06 15:48:20;;;;;;;4.63;2.00;;;22.30;91.60;;;;;;4929323;29;20197;-73
2022/05/06 15:50:47;;;;;;;4.22;1.92;;;22.20;91.40;;;;;;4932162;29;20207;-72
2022/05/06 15:53:14;;;;;;;7.88;2.05;;;22.20;91.70;;;;;;4935904;29;20239;-71
2022/05/06 15:55:41;;;;;;;4.60;2.10;;;22.00;91.40;;;;;;4937372;29;20200;-72
2022/05/06 15:58:08;;;;;;;4.57;2.13;;;21.90;91.20;;;;;;4938074;29;20205;-72
2022/05/06 16:00:35;;;;;;;6.18;2.92;;;22.00;91.30;;;;;;4933196;29;20200;-73
2022/05/06 16:03:02;;;;;;;6.22;2.47;;;22.20;91.30;;;;;;4938310;29;20704;-75
2022/05/06 16:05:30;;;;;;;7.05;2.30;;;22.20;90.80;;;;;;4938147;29;20676;-74
2022/05/06 16:07:57;;;;;;;6.57;2.40;;;22.20;91.10;;;;;;4939255;29;20205;-72
2022/05/06 16:10:25;;;;;;;6.35;2.85;;;22.10;91.60;;;;;;4938663;29;20208;-72
2022/05/06 16:12:52;;;;;;;5.82;2.13;;;22.20;91.30;;;;;;4938948;29;20283;-71
2022/05/06 16:15:21;;;;;;;6.10;2.65;;;22.20;92.20;;;;;;4937931;29;20203;-72
2022/05/06 16:17:50;;;;;;;4.05;2.05;;;21.90;92.00;;;;;;4937813;29;20787;-73
2022/05/06 16:20:18;;;;;;;3.22;1.83;;;21.80;92.90;;;;;;4937505;29;20224;-72
2022/05/06 16:22:49;;;;;;;5.05;2.55;;;21.90;92.10;;;;;;4937150;29;20231;-74
2022/05/06 16:25:16;;;;;;;4.70;2.08;;;22.00;92.00;;;;;;4934116;29;20205;-72
2022/05/06 16:27:42;;;;;;;4.60;2.30;;;21.90;92.10;;;;;;4937232;29;20201;-74
2022/05/06 16:30:11;;;;;;;4.85;2.22;;;21.90;92.60;;;;;;4936808;29;20622;-75
2022/05/06 16:32:39;;;;;;;5.68;2.08;;;22.00;92.60;;;;;;4937464;29;20244;-73
2022/05/06 16:37:53;;;;;;;4.70;1.70;;;22.10;91.70;;;;;;4938131;29;20228;-72
2022/05/06 16:40:20;;;;;;;5.53;2.40;;;22.10;91.50;;;;;;4938385;29;20690;-73
2022/05/06 16:42:47;;;;;;;4.20;1.77;;;22.20;91.20;;;;;;4938132;29;20225;-72
2022/05/06 16:45:14;;;;;;;5.10;2.15;;;22.10;92.00;;;;;;4938099;29;20205;-72
2022/05/06 16:47:43;;;;;;;3.90;2.08;;;22.00;91.60;;;;;;4938393;29;20220;-72
2022/05/06 16:50:12;;;;;;;2.85;1.85;;;22.00;91.60;;;;;;4938544;29;20213;-72
2022/05/06 16:52:39;;;;;;;3.70;2.15;;;22.00;91.70;;;;;;4937219;29;20304;-72
2022/05/06 16:55:10;;;;;;;4.35;1.70;;;22.10;91.70;;;;;;4935793;29;20208;-72
2022/05/06 16:57:37;;;;;;;3.75;1.67;;;22.10;92.20;;;;;;4936685;29;20259;-72
2022/05/06 17:00:06;;;;;;;4.68;1.95;;;21.90;92.90;;;;;;4937704;29;20260;-72
2022/05/06 17:02:33;;;;;;;6.85;1.35;;;21.90;92.90;;;;;;4934882;29;20229;-71
2022/05/06 17:05:00;;;;;;;4.15;2.40;;;21.90;93.10;;;;;;4934757;29;20209;-71
2022/05/06 17:07:29;;;;;;;4.60;2.42;;;21.70;92.80;;;;;;4937339;29;20213;-71
2022/05/06 17:09:56;;;;;;;3.05;1.80;;;21.80;93.10;;;;;;4937097;29;20201;-72
2022/05/06 17:12:24;;;;;;;3.65;1.80;;;21.80;93.10;;;;;;4936619;29;20700;-71
2022/05/06 17:14:51;;;;;;;3.70;2.03;;;21.70;93.80;;;;;;4937119;29;20209;-71
2022/05/06 17:17:18;;;;;;;3.88;1.73;;;21.80;93.60;;;;;;4937839;29;20216;-70
2022/05/06 17:19:45;;;;;;;3.13;1.80;;;21.80;93.40;;;;;;4936488;29;20668;-72
2022/05/06 17:22:12;;;;;;;3.80;1.95;;;21.80;93.20;;;;;;4936881;29;20665;-71
2022/05/06 17:24:39;;;;;;;3.90;2.22;;;21.90;92.90;;;;;;4937168;29;20209;-72
2022/05/06 17:27:06;;;;;;;4.53;2.25;;;22.10;92.60;;;;;;4936977;29;20213;-71
2022/05/06 17:29:34;;;;;;;3.72;1.83;;;22.20;92.70;;;;;;4937124;29;20215;-71
2022/05/06 17:32:02;;;;;;;4.10;1.95;;;22.20;93.00;;;;;;4935760;29;20299;-71
2022/05/06 17:34:29;;;;;;;2.42;1.63;;;21.90;93.60;;;;;;4937240;29;20235;-71
2022/05/06 17:36:56;;;;;;;4.95;1.90;;;21.70;93.30;;;;;;4935243;29;20308;-71
2022/05/06 17:39:23;;;;;;;3.20;1.60;;;21.60;93.20;;;;;;4935508;29;20193;-73
2022/05/06 17:41:50;;;;;;;2.53;1.42;;;21.60;93.60;;;;;;4934505;29;20362;-74
2022/05/06 17:44:17;;;;;;;3.42;1.48;;;21.50;93.90;;;;;;4934843;29;20229;-72
2022/05/06 17:46:46;;;;;;;4.20;2.00;;;21.30;94.10;;;;;;4935308;29;20219;-72
2022/05/06 17:49:12;;;;;;;2.20;1.40;;;21.30;94.00;;;;;;4935453;29;20260;-72
2022/05/06 17:51:40;;;;;;;2.40;1.45;;;21.40;93.80;;;;;;4936270;29;20219;-72
2022/05/06 17:54:07;;;;;;;3.53;1.30;;;21.40;94.00;;;;;;4935798;29;20696;-72
2022/05/06 17:56:35;;;;;;;2.50;1.20;;;21.40;94.30;;;;;;4935775;29;20212;-75
2022/05/06 17:59:02;;;;;;;2.60;1.42;;;21.40;93.90;;;;;;4935804;29;20333;-73
2022/05/06 18:01:27;;;;;;;1.48;1.00;;;21.40;94.10;;;;;;4937166;29;20245;-72
2022/05/06 18:03:57;;;;;;;1.40;1.20;;;21.40;94.30;;;;;;4936384;29;20319;-72
2022/05/06 18:06:25;;;;;;;3.45;1.42;;;21.30;94.60;;;;;;4935573;29;20565;-71
2022/05/06 18:08:53;;;;;;;2.45;1.63;;;21.20;95.10;;;;;;4937038;29;20568;-72
2022/05/06 18:11:21;;;;;;;2.30;1.40;;;21.20;94.60;;;;;;4936599;29;20209;-72
2022/05/06 18:13:48;;;;;;;2.45;1.20;;;21.10;95.70;;;;;;4935303;29;20240;-73
2022/05/06 18:16:16;;;;;;;1.52;1.00;;;21.00;96.10;;;;;;4934738;29;20217;-72
2022/05/06 18:18:44;;;;;;;1.33;1.10;;;20.80;97.30;;;;;;4934393;29;20268;-72
2022/05/06 18:21:12;;;;;;;2.25;1.02;;;20.70;97.10;;;;;;4936207;29;20209;-72
2022/05/06 18:23:39;;;;;;;4.45;1.17;;;20.50;97.00;;;;;;4934962;29;20229;-72
2022/05/06 18:26:10;;;;;;;4.78;1.20;;;20.40;97.20;;;;;;4935917;29;20225;-72
2022/05/06 18:28:37;;;;;;;1.27;0.85;;;20.30;97.50;;;;;;4935614;29;20208;-72
2022/05/06 18:31:04;;;;;;;1.90;1.10;;;20.20;98.20;;;;;;4935038;29;20213;-73
2022/05/06 18:33:31;;;;;;;1.42;0.80;;;20.10;98.70;;;;;;4930279;29;20241;-71
2022/05/06 18:36:00;;;;;;;2.40;1.10;;;20.00;98.40;;;;;;4936416;29;20213;-71
2022/05/06 18:38:31;;;;;;;1.02;0.80;;;19.90;98.80;;;;;;4936231;29;20205;-72
2022/05/06 18:40:58;;;;;;;1.95;0.98;;;19.80;99.10;;;;;;4935726;29;20213;-72
2022/05/06 18:43:25;;;;;;;1.10;0.90;;;19.70;99.30;;;;;;4935053;29;20252;-72
2022/05/06 18:45:53;;;;;;;1.73;0.90;;;19.60;99.60;;;;;;4935306;29;20205;-72
2022/05/06 18:48:20;;;;;;;1.00;0.80;;;19.40;99.90;;;;;;4934612;29;20205;-73
2022/05/06 18:50:49;;;;;;;2.95;1.00;;;19.30;99.90;;;;;;4932585;29;20296;-72
2022/05/06 18:53:22;;;;;;;1.05;0.93;;;19.20;99.90;;;;;;4934715;29;20713;-71
2022/05/06 18:55:50;;;;;;;1.75;0.95;;;19.20;99.90;;;;;;4933743;29;20668;-72
2022/05/06 18:58:17;;;;;;;2.58;1.13;;;19.10;99.90;;;;;;4934987;29;20212;-73
2022/05/06 19:00:44;;;;;;;3.22;0.95;;;19.00;99.90;;;;;;4925630;29;20216;-73
2022/05/06 19:03:11;;;;;;;1.83;1.20;;;18.90;99.90;;;;;;4919441;29;20239;-72
2022/05/06 19:05:38;;;;;;;3.28;1.02;;;18.80;99.90;;;;;;4921913;29;20224;-72
2022/05/06 19:08:05;;;;;;;1.50;1.02;;;18.70;99.90;;;;;;4930046;29;20215;-72
2022/05/06 19:10:32;;;;;;;4.27;1.20;;;18.60;99.90;;;;;;4926038;29;20217;-72
2022/05/06 19:13:00;;;;;;;2.13;1.10;;;18.60;99.90;;;;;;4926611;29;20229;-72
2022/05/06 19:15:27;;;;;;;2.88;1.40;;;18.40;99.90;;;;;;4923301;29;20301;-71
2022/05/06 19:17:57;;;;;;;1.95;1.35;;;18.30;99.90;;;;;;4919999;29;20214;-73
2022/05/06 19:20:26;;;;;;;2.97;1.67;;;18.20;99.90;;;;;;4921548;29;20215;-72
2022/05/06 19:25:37;;;;;;;2.50;1.33;;;17.90;99.90;;;;;;4925194;29;20216;-72
2022/05/06 19:28:06;;;;;;;4.40;1.90;;;17.80;99.90;;;;;;4926049;29;20220;-72
2022/05/06 19:30:33;;;;;;;3.80;1.70;;;17.70;99.90;;;;;;4928525;29;20580;-72
2022/05/06 19:33:00;;;;;;;3.77;1.70;;;17.60;99.90;;;;;;4924993;29;20748;-72
2022/05/06 19:35:28;;;;;;;4.53;1.60;;;17.60;99.90;;;;;;4926572;29;20205;-72
2022/05/06 19:37:57;;;;;;;3.20;1.90;;;17.50;99.90;;;;;;4927419;29;20256;-72
2022/05/06 19:40:24;;;;;;;3.33;1.70;;;17.50;99.90;;;;;;4928824;29;20610;-71
2022/05/06 19:42:52;;;;;;;3.60;1.60;;;17.40;99.90;;;;;;4924597;29;20233;-72
2022/05/06 19:45:20;;;;;;;2.77;1.33;;;17.30;99.90;;;;;;4923345;29;20752;-72
2022/05/06 19:47:47;;;;;;;4.07;1.73;;;17.20;99.90;;;;;;4924422;29;20595;-72